Time;durP1;ratioP1;P1;durP2;ratioP2;P2;SDS_P1;SDS_P2;PMS_P1;PMS_P2;Temp;Humidity;BMP_temperature;BMP_pressure;BME280_temperature;BME280_humidity;BME280_pressure;Samples;Min_cycle;Max_cycle;Signal;HPM_P1;HPM_P2
2022/01/12 00:00:00;;;;;;;338.27;80.77;;;;;;;1.36;74.65;100283.31;341324;28;1184;-73
2022/01/12 00:00:10;;;;;;;338.55;80.35;;;;;;;1.38;74.71;100286.78;343833;28;1084;-73
2022/01/12 00:00:22;;;;;;;335.35;77.93;;;;;;;1.38;74.51;100281.63;343782;28;5372;-74
2022/01/12 00:00:38;;;;;;;334.45;77.43;;;;;;;1.40;74.62;100279.06;344283;28;946;-73
2022/01/12 00:00:48;;;;;;;335.90;76.93;;;;;;;1.44;74.81;100275.63;338913;29;1072;-73
2022/01/12 00:00:58;;;;;;;337.83;78.03;;;;;;;1.45;74.80;100283.38;338638;29;1316;-73
2022/01/12 00:01:12;;;;;;;337.70;78.43;;;;;;;1.48;74.49;100283.41;344063;28;1311;-73
2022/01/12 00:01:22;;;;;;;337.23;79.75;;;;;;;1.46;75.33;100279.97;341509;28;1369;-73
2022/01/12 00:01:33;;;;;;;335.70;78.00;;;;;;;1.51;75.22;100282.56;340152;28;1247;-73
2022/01/12 00:01:43;;;;;;;334.98;76.85;;;;;;;1.50;74.73;100271.38;338969;29;869;-73
2022/01/12 00:01:54;;;;;;;335.30;77.37;;;;;;;1.47;75.08;100276.53;341494;28;1176;-73
2022/01/12 00:02:04;;;;;;;336.98;78.95;;;;;;;1.48;74.67;100283.41;340094;29;940;-73
2022/01/12 00:02:17;;;;;;;337.13;79.60;;;;;;;1.42;75.08;100278.22;338966;29;1039;-72
2022/01/12 00:02:27;;;;;;;337.67;80.28;;;;;;;1.42;75.51;100279.94;338709;29;992;-73
2022/01/12 00:02:37;;;;;;;337.80;78.93;;;;;;;1.42;74.87;100280.78;341554;28;1170;-73
2022/01/12 00:02:48;;;;;;;338.67;78.97;;;;;;;1.41;74.71;100286.78;341841;28;1096;-72
2022/01/12 00:02:58;;;;;;;336.67;77.83;;;;;;;1.41;74.87;100283.34;338833;29;865;-73
2022/01/12 00:03:10;;;;;;;336.08;77.93;;;;;;;1.41;74.81;100281.63;338623;29;1249;-72
2022/01/12 00:03:20;;;;;;;334.92;76.75;;;;;;;1.44;74.71;100275.63;341343;28;1585;-73
2022/01/12 00:03:34;;;;;;;336.55;77.85;;;;;;;1.46;74.60;100276.50;344135;28;833;-72
2022/01/12 00:03:45;;;;;;;336.15;77.38;;;;;;;1.47;74.72;100279.09;343917;28;954;-73
2022/01/12 00:03:55;;;;;;;336.00;76.45;;;;;;;1.46;74.44;100285.13;341517;28;1190;-72
2022/01/12 00:04:07;;;;;;;336.27;75.67;;;;;;;1.46;74.24;100284.25;341337;28;936;-72
2022/01/12 00:04:17;;;;;;;335.73;76.45;;;;;;;1.42;75.18;100273.06;341487;28;1082;-72
2022/01/12 00:04:28;;;;;;;335.23;75.87;;;;;;;1.44;74.71;100285.97;341341;28;1161;-72
2022/01/12 00:04:39;;;;;;;337.10;76.97;;;;;;;1.45;74.42;100283.38;339750;28;1225;-73
2022/01/12 00:04:49;;;;;;;338.38;78.72;;;;;;;1.44;74.74;100279.09;338486;29;967;-73
2022/01/12 00:05:00;;;;;;;339.40;80.07;;;;;;;1.42;74.62;100278.22;340774;28;1315;-73
2022/01/12 00:05:10;;;;;;;338.77;79.47;;;;;;;1.39;75.11;100280.75;341355;29;974;-73
2022/01/12 00:05:21;;;;;;;338.33;78.97;;;;;;;1.40;75.55;100277.34;341359;29;1023;-73
2022/01/12 00:05:31;;;;;;;338.37;79.03;;;;;;;1.40;75.13;100279.91;343360;28;1590;-73
2022/01/12 00:05:42;;;;;;;338.15;78.95;;;;;;;1.40;75.67;100279.91;342676;28;1066;-73
2022/01/12 00:05:53;;;;;;;337.10;77.30;;;;;;;1.43;75.85;100290.25;338704;29;941;-72
2022/01/12 00:06:03;;;;;;;337.15;77.13;;;;;;;1.46;75.60;100279.09;339856;29;1198;-73
2022/01/12 00:06:14;;;;;;;337.17;77.47;;;;;;;1.45;75.35;100282.53;339989;29;1016;-73
2022/01/12 00:06:24;;;;;;;338.17;79.10;;;;;;;1.46;75.39;100284.25;341332;29;875;-72
2022/01/12 00:06:35;;;;;;;337.17;78.53;;;;;;;1.46;75.33;100287.69;341242;28;1614;-72
2022/01/12 00:06:45;;;;;;;338.27;78.95;;;;;;;1.48;75.01;100288.56;341258;29;882;-74
2022/01/12 00:06:56;;;;;;;338.23;79.10;;;;;;;1.51;75.41;100285.16;343923;28;1340;-73
2022/01/12 00:07:06;;;;;;;338.95;79.45;;;;;;;1.54;75.83;100280.88;343702;28;1417;-74
2022/01/12 00:07:16;;;;;;;338.83;79.70;;;;;;;1.55;75.72;100280.03;344068;28;946;-74
2022/01/12 00:07:27;;;;;;;338.23;78.80;;;;;;;1.58;75.40;100284.34;338544;29;1216;-74
2022/01/12 00:07:37;;;;;;;338.30;77.63;;;;;;;1.56;75.04;100280.88;341109;29;1147;-74
2022/01/12 00:07:50;;;;;;;338.77;77.20;;;;;;;1.55;74.90;100287.75;342579;28;1307;-74
2022/01/12 00:08:00;;;;;;;338.75;77.75;;;;;;;1.54;74.30;100283.44;344059;28;967;-74
2022/01/12 00:08:11;;;;;;;337.95;77.45;;;;;;;1.51;74.36;100282.56;343843;28;1717;-74
2022/01/12 00:08:21;;;;;;;335.87;76.33;;;;;;;1.50;74.73;100292.03;339763;28;1193;-73
2022/01/12 00:08:32;;;;;;;335.63;76.47;;;;;;;1.51;74.69;100291.16;342624;28;936;-73
2022/01/12 00:08:42;;;;;;;335.42;75.82;;;;;;;1.51;74.20;100293.75;342661;28;944;-73
2022/01/12 00:08:53;;;;;;;335.50;75.27;;;;;;;1.52;74.99;100287.72;343954;28;960;-73
2022/01/12 00:09:06;;;;;;;334.73;75.05;;;;;;;1.54;74.57;100283.44;344052;28;932;-73
2022/01/12 00:09:17;;;;;;;336.13;76.88;;;;;;;1.54;75.31;100293.78;338684;28;917;-74
2022/01/12 00:09:27;;;;;;;337.80;78.93;;;;;;;1.55;74.77;100298.06;336757;29;1396;-74
2022/01/12 00:09:38;;;;;;;337.45;80.70;;;;;;;1.55;75.37;100294.63;335840;29;929;-74
2022/01/12 00:09:48;;;;;;;336.57;79.23;;;;;;;1.51;74.89;100287.72;336406;29;1283;-73
2022/01/12 00:09:58;;;;;;;335.27;78.20;;;;;;;1.48;74.02;100291.16;339006;29;1117;-74
2022/01/12 00:10:09;;;;;;;334.53;76.73;;;;;;;1.47;74.62;100291.13;342647;28;1014;-74
2022/01/12 00:10:19;;;;;;;334.33;77.13;;;;;;;1.44;74.65;100285.97;341195;28;1201;-74
2022/01/12 00:10:30;;;;;;;334.60;77.20;;;;;;;1.44;74.10;100285.97;341294;29;830;-74
2022/01/12 00:10:40;;;;;;;335.70;77.22;;;;;;;1.48;73.45;100292.88;341357;29;861;-74
2022/01/12 00:10:51;;;;;;;336.17;77.77;;;;;;;1.53;73.80;100297.19;344024;28;934;-74
2022/01/12 00:11:03;;;;;;;336.60;77.38;;;;;;;1.54;74.06;100288.59;342561;28;1354;-74
2022/01/12 00:11:13;;;;;;;335.35;76.43;;;;;;;1.55;74.12;100289.47;343966;28;966;-74
2022/01/12 00:11:23;;;;;;;335.47;75.87;;;;;;;1.56;73.79;100291.19;342592;28;952;-74
2022/01/12 00:11:34;;;;;;;334.67;76.18;;;;;;;1.56;73.99;100289.47;343814;28;1631;-73
2022/01/12 00:11:45;;;;;;;335.42;76.22;;;;;;;1.60;73.47;100293.81;343987;28;1369;-73
2022/01/12 00:11:55;;;;;;;334.43;76.03;;;;;;;1.60;73.94;100293.81;344002;28;1086;-73
2022/01/12 00:12:06;;;;;;;335.63;76.03;;;;;;;1.62;73.67;100293.81;342620;28;916;-73
2022/01/12 00:12:17;;;;;;;334.42;74.82;;;;;;;1.63;73.77;100292.97;341262;28;1043;-73
2022/01/12 00:12:27;;;;;;;334.33;75.73;;;;;;;1.65;73.84;100292.13;341309;29;1031;-72
2022/01/12 00:12:37;;;;;;;333.40;76.18;;;;;;;1.63;74.28;100299.00;341297;29;1122;-73
2022/01/12 00:12:48;;;;;;;333.57;76.93;;;;;;;1.62;74.25;100291.25;341267;29;1448;-71
2022/01/12 00:12:58;;;;;;;334.77;75.53;;;;;;;1.60;73.70;100304.13;341201;28;1308;-72
2022/01/12 00:13:09;;;;;;;335.17;74.40;;;;;;;1.61;74.01;100297.25;342436;28;1947;-72
2022/01/12 00:13:19;;;;;;;335.55;75.07;;;;;;;1.61;73.63;100297.25;343929;28;1550;-72
2022/01/12 00:13:30;;;;;;;334.13;75.03;;;;;;;1.60;73.44;100298.97;341176;29;825;-73
2022/01/12 00:13:40;;;;;;;333.25;74.65;;;;;;;1.63;73.47;100300.72;341180;28;1346;-73
2022/01/12 00:13:52;;;;;;;333.23;74.17;;;;;;;1.62;73.71;100301.56;339917;28;2055;-73
2022/01/12 00:14:03;;;;;;;334.13;74.75;;;;;;;1.57;74.23;100298.09;342529;28;1431;-73
2022/01/12 00:14:14;;;;;;;334.33;75.35;;;;;;;1.54;73.71;100298.94;341248;29;982;-73
2022/01/12 00:14:25;;;;;;;334.00;75.53;;;;;;;1.51;73.50;100296.31;341346;29;877;-73
2022/01/12 00:14:35;;;;;;;334.20;75.63;;;;;;;1.51;74.06;100296.31;339942;29;2125;-73
2022/01/12 00:14:46;;;;;;;334.20;75.70;;;;;;;1.50;74.34;100296.31;342519;28;1166;-73
2022/01/12 00:14:56;;;;;;;333.90;75.28;;;;;;;1.53;74.21;100299.78;342501;28;1342;-73
2022/01/12 00:15:07;;;;;;;333.83;75.37;;;;;;;1.56;73.75;100299.81;343954;28;1363;-73
2022/01/12 00:15:17;;;;;;;334.13;75.88;;;;;;;1.58;73.98;100290.34;339874;28;1213;-73
2022/01/12 00:15:28;;;;;;;335.40;76.87;;;;;;;1.57;74.48;100296.38;339927;29;1005;-73
2022/01/12 00:15:38;;;;;;;335.05;77.43;;;;;;;1.59;74.58;100291.22;341163;29;1228;-73
2022/01/12 00:15:49;;;;;;;333.83;76.50;;;;;;;1.62;74.58;100296.41;342457;28;976;-73
2022/01/12 00:16:01;;;;;;;333.63;74.87;;;;;;;1.60;74.56;100288.66;341131;28;1337;-74
2022/01/12 00:16:12;;;;;;;334.25;73.75;;;;;;;1.62;74.70;100299.84;341114;29;956;-74
2022/01/12 00:16:22;;;;;;;334.57;75.83;;;;;;;1.61;74.95;100294.66;341035;29;963;-73
2022/01/12 00:16:33;;;;;;;335.08;77.50;;;;;;;1.66;75.08;100299.00;341911;28;1597;-73
2022/01/12 00:16:47;;;;;;;336.67;78.18;;;;;;;1.66;75.47;100298.16;342567;28;893;-73
2022/01/12 00:16:59;;;;;;;337.30;76.43;;;;;;;1.66;74.75;100299.00;341338;29;906;-73
2022/01/12 00:17:10;;;;;;;335.92;76.22;;;;;;;1.67;74.38;100300.75;343873;28;1306;-73
2022/01/12 00:17:20;;;;;;;333.47;74.67;;;;;;;1.66;74.40;100293.00;344907;28;1056;-73
2022/01/12 00:17:30;;;;;;;333.67;74.97;;;;;;;1.66;74.56;100298.16;343691;28;1231;-73
2022/01/12 00:17:41;;;;;;;333.10;73.47;;;;;;;1.64;74.61;100298.13;341226;28;1025;-73
2022/01/12 00:17:52;;;;;;;333.67;74.22;;;;;;;1.61;74.27;100298.13;338745;29;869;-73
2022/01/12 00:18:02;;;;;;;333.33;74.43;;;;;;;1.60;74.43;100303.25;342475;28;1204;-73
2022/01/12 00:18:13;;;;;;;334.08;76.07;;;;;;;1.61;74.53;100305.00;345186;28;1054;-73
2022/01/12 00:18:23;;;;;;;334.03;76.60;;;;;;;1.63;73.65;100304.16;343996;28;1135;-73
2022/01/12 00:18:34;;;;;;;333.58;75.30;;;;;;;1.64;74.92;100305.88;342588;28;881;-72
2022/01/12 00:18:45;;;;;;;334.17;75.90;;;;;;;1.65;74.24;100302.44;339850;29;1390;-74
2022/01/12 00:18:56;;;;;;;335.13;76.38;;;;;;;1.67;74.27;100300.75;337412;29;968;-73
2022/01/12 00:19:06;;;;;;;333.63;76.23;;;;;;;1.67;74.64;100297.28;340001;29;865;-73
2022/01/12 00:19:17;;;;;;;333.50;75.83;;;;;;;1.68;74.47;100304.19;342442;28;1914;-73
2022/01/12 00:19:29;;;;;;;333.52;75.32;;;;;;;1.63;74.00;100304.16;342638;28;950;-73
2022/01/12 00:19:39;;;;;;;333.85;75.13;;;;;;;1.62;74.03;100306.72;342554;28;1317;-73
2022/01/12 00:19:49;;;;;;;334.43;76.13;;;;;;;1.65;74.07;100302.44;339379;29;1115;-73
2022/01/12 00:20:00;;;;;;;334.23;76.70;;;;;;;1.63;74.82;100308.44;341317;28;1644;-73
2022/01/12 00:20:10;;;;;;;334.70;77.47;;;;;;;1.62;74.04;100301.56;342631;28;973;-73
2022/01/12 00:20:21;;;;;;;333.90;76.00;;;;;;;1.62;75.21;100302.41;342562;28;1024;-73
2022/01/12 00:20:31;;;;;;;334.50;75.33;;;;;;;1.62;75.26;100302.41;341201;29;1394;-73
2022/01/12 00:20:42;;;;;;;334.23;75.28;;;;;;;1.62;75.44;100302.41;339901;29;961;-73
2022/01/12 00:20:54;;;;;;;334.30;74.40;;;;;;;1.58;74.78;100300.69;340040;29;933;-73
2022/01/12 00:21:04;;;;;;;335.27;76.00;;;;;;;1.58;74.49;100299.81;341177;29;1531;-73
2022/01/12 00:21:15;;;;;;;335.97;77.73;;;;;;;1.57;74.50;100305.81;341270;29;838;-73
2022/01/12 00:21:25;;;;;;;334.65;77.15;;;;;;;1.59;74.47;100310.13;342467;28;1906;-73
2022/01/12 00:21:36;;;;;;;334.33;77.47;;;;;;;1.60;74.69;100308.44;342474;28;1188;-73
2022/01/12 00:21:46;;;;;;;333.85;76.43;;;;;;;1.63;74.42;100308.44;341184;29;1336;-73
2022/01/12 00:21:57;;;;;;;333.30;76.90;;;;;;;1.58;74.46;100302.38;341270;29;876;-73
2022/01/12 00:22:08;;;;;;;333.12;75.78;;;;;;;1.59;74.76;100304.97;339923;29;872;-73
2022/01/12 00:22:19;;;;;;;334.08;76.20;;;;;;;1.58;74.57;100313.56;339983;29;997;-74
2022/01/12 00:22:32;;;;;;;333.23;75.77;;;;;;;1.57;75.16;100309.25;341221;28;1223;-73
2022/01/12 00:22:43;;;;;;;334.17;76.82;;;;;;;1.60;75.31;100309.28;341219;29;1016;-73
2022/01/12 00:22:54;;;;;;;333.73;75.25;;;;;;;1.57;75.30;100298.94;339870;29;1390;-73
2022/01/12 00:23:04;;;;;;;333.90;75.03;;;;;;;1.54;74.59;100309.25;342483;28;1579;-73
2022/01/12 00:23:15;;;;;;;332.50;74.20;;;;;;;1.52;74.63;100310.94;342537;28;1228;-73
2022/01/12 00:23:26;;;;;;;334.17;74.97;;;;;;;1.52;74.37;100310.94;339659;28;1315;-73
2022/01/12 00:23:38;;;;;;;334.33;75.40;;;;;;;1.50;74.88;100304.91;342545;28;870;-73
2022/01/12 00:23:48;;;;;;;333.33;74.28;;;;;;;1.45;74.74;100309.19;341302;29;996;-74
2022/01/12 00:24:00;;;;;;;334.03;76.67;;;;;;;1.45;75.14;100314.34;343879;28;1338;-74
2022/01/12 00:24:10;;;;;;;334.27;77.05;;;;;;;1.45;73.67;100308.31;341676;28;1071;-74
2022/01/12 00:24:21;;;;;;;335.03;78.10;;;;;;;1.45;73.89;100314.34;339963;28;1577;-73
2022/01/12 00:25:01;;;;;;;334.92;77.20;;;;;;;1.43;74.00;100310.88;342530;28;1156;-73
2022/01/12 00:25:23;;;;;;;336.08;77.18;;;;;;;1.43;74.66;100308.31;342360;28;1140;-73
2022/01/12 00:25:45;;;;;;;334.33;75.75;;;;;;;1.42;74.66;100304.00;340964;28;1436;-73
2022/01/12 00:33:08;;;;;;;336.20;76.65;;;;;;;1.60;74.75;100309.28;341122;28;1190;-73
2022/01/12 00:33:13;;;;;;;336.83;76.32;;;;;;;1.47;73.65;100304.91;343904;28;842;-73
2022/01/12 00:33:23;;;;;;;337.02;76.93;;;;;;;1.48;74.00;100306.63;344013;28;864;-73
2022/01/12 00:33:33;;;;;;;337.87;78.33;;;;;;;1.50;74.29;100312.66;338488;28;1444;-73
2022/01/12 00:33:44;;;;;;;338.35;79.18;;;;;;;1.53;74.63;100307.53;338579;29;867;-73
2022/01/12 00:33:55;;;;;;;336.83;77.67;;;;;;;1.54;74.45;100308.38;339927;29;1766;-73
2022/01/12 00:34:06;;;;;;;336.75;77.18;;;;;;;1.54;73.99;100305.81;341334;29;1314;-74
2022/01/12 00:34:16;;;;;;;336.83;75.93;;;;;;;1.57;74.74;100308.41;341263;29;941;-74
2022/01/12 00:34:26;;;;;;;337.88;76.00;;;;;;;1.56;74.73;100312.69;341308;29;862;-74
2022/01/12 00:34:37;;;;;;;337.73;76.30;;;;;;;1.54;74.27;100309.25;339890;29;905;-74
2022/01/12 00:34:47;;;;;;;335.40;76.55;;;;;;;1.56;74.02;100304.09;339936;29;1556;-73
2022/01/12 00:34:58;;;;;;;335.77;78.03;;;;;;;1.54;74.57;100298.06;342677;28;927;-73
2022/01/12 00:35:08;;;;;;;335.80;79.47;;;;;;;1.56;74.97;100310.13;341336;29;862;-73
2022/01/12 00:35:19;;;;;;;336.17;79.73;;;;;;;1.54;73.90;100311.81;341309;29;1032;-73
2022/01/12 00:35:29;;;;;;;335.73;77.28;;;;;;;1.51;73.91;100309.22;345088;28;1353;-73
2022/01/12 00:35:47;;;;;;;336.27;76.57;;;;;;;1.51;74.17;100305.78;342578;28;885;-73
2022/01/12 00:35:57;;;;;;;338.00;79.25;;;;;;;1.47;74.24;100306.59;344024;28;924;-73
2022/01/12 00:36:08;;;;;;;338.02;79.18;;;;;;;1.44;74.10;100310.03;345278;28;1033;-73
2022/01/12 00:36:19;;;;;;;337.13;77.78;;;;;;;1.46;73.93;100307.47;343730;28;1553;-73
2022/01/12 00:36:30;;;;;;;339.00;78.38;;;;;;;1.48;74.13;100309.19;339868;29;1184;-73
2022/01/12 00:36:40;;;;;;;339.13;77.83;;;;;;;1.52;73.69;100305.78;341265;28;1572;-73
2022/01/12 00:36:50;;;;;;;338.92;77.70;;;;;;;1.54;73.82;100311.81;339889;29;1292;-72
2022/01/12 00:37:01;;;;;;;337.30;76.93;;;;;;;1.56;74.28;100306.69;341225;28;1172;-72
2022/01/12 00:37:11;;;;;;;336.35;76.32;;;;;;;1.58;74.28;100304.97;339909;29;889;-72
2022/01/12 00:37:22;;;;;;;336.53;76.20;;;;;;;1.56;74.04;100307.53;341204;29;1309;-72
2022/01/12 00:37:32;;;;;;;336.73;78.13;;;;;;;1.60;73.86;100306.72;341128;29;906;-72
2022/01/12 00:37:42;;;;;;;336.67;78.70;;;;;;;1.62;73.54;100306.72;343833;28;1240;-72
2022/01/12 00:37:53;;;;;;;336.85;78.20;;;;;;;1.64;73.95;100303.28;342553;28;1340;-72
2022/01/12 00:38:03;;;;;;;335.53;75.47;;;;;;;1.64;74.03;100305.88;343039;28;2089;-72
2022/01/12 00:38:14;;;;;;;336.60;75.10;;;;;;;1.60;73.89;100309.28;339918;29;863;-72
2022/01/12 00:38:25;;;;;;;335.75;76.00;;;;;;;1.58;73.51;100311.00;339790;29;965;-72
2022/01/12 00:38:36;;;;;;;336.35;77.45;;;;;;;1.55;73.56;100313.56;342476;28;1415;-74
2022/01/12 00:38:46;;;;;;;338.52;78.72;;;;;;;1.49;72.50;100316.09;339890;29;1197;-73
2022/01/12 00:38:57;;;;;;;338.57;77.87;;;;;;;1.50;73.62;100317.81;339908;29;1193;-73
2022/01/12 00:39:08;;;;;;;339.33;78.15;;;;;;;1.53;73.17;100314.38;341216;28;1411;-73
2022/01/12 00:39:18;;;;;;;337.20;78.20;;;;;;;1.51;73.46;100316.97;342415;28;2001;-74
2022/01/12 00:39:29;;;;;;;338.53;78.17;;;;;;;1.51;73.35;100310.94;341085;29;1393;-73
2022/01/12 00:39:39;;;;;;;337.77;79.03;;;;;;;1.54;73.70;100308.38;339955;29;843;-74
2022/01/12 00:39:49;;;;;;;339.37;80.67;;;;;;;1.57;74.00;100314.44;342307;28;1985;-73
2022/01/12 00:40:00;;;;;;;337.67;79.72;;;;;;;1.58;73.49;100310.13;343837;28;1184;-73
2022/01/12 00:40:11;;;;;;;337.93;78.57;;;;;;;1.59;73.67;100311.84;341190;28;1228;-73
2022/01/12 00:40:21;;;;;;;336.73;77.03;;;;;;;1.57;74.21;100311.84;341121;28;1207;-73
2022/01/12 00:40:32;;;;;;;337.15;77.60;;;;;;;1.60;74.06;100309.28;345150;28;1663;-73
2022/01/12 00:40:44;;;;;;;337.10;76.97;;;;;;;1.61;73.67;100310.16;341257;29;1024;-74
2022/01/12 00:40:54;;;;;;;336.92;76.13;;;;;;;1.63;73.40;100309.31;341135;29;1289;-74
2022/01/12 00:41:04;;;;;;;336.87;75.57;;;;;;;1.65;74.43;100312.75;342333;28;1189;-74
2022/01/12 00:41:17;;;;;;;337.87;76.70;;;;;;;1.70;74.07;100314.50;342437;28;1293;-74
2022/01/12 00:41:27;;;;;;;338.00;77.63;;;;;;;1.71;73.87;100311.06;341506;28;1202;-74
2022/01/12 00:41:38;;;;;;;337.10;77.07;;;;;;;1.71;73.99;100313.66;339951;29;941;-74
2022/01/12 00:41:48;;;;;;;335.38;75.28;;;;;;;1.71;74.23;100311.94;342629;28;856;-74
2022/01/12 00:41:59;;;;;;;335.53;75.50;;;;;;;1.73;73.76;100315.41;342635;28;1177;-74
2022/01/12 00:42:13;;;;;;;336.07;75.90;;;;;;;1.72;73.33;100312.81;341135;28;1335;-74
2022/01/12 00:42:25;;;;;;;335.80;75.97;;;;;;;1.73;73.67;100320.56;342574;28;1057;-74
2022/01/12 00:42:36;;;;;;;335.55;75.90;;;;;;;1.77;73.42;100321.41;341012;28;1431;-73
2022/01/12 00:42:47;;;;;;;335.65;76.80;;;;;;;1.77;74.29;100317.09;339845;28;1264;-73
2022/01/12 00:42:57;;;;;;;336.73;77.13;;;;;;;1.74;73.27;100317.09;339848;29;1536;-74
2022/01/12 00:43:08;;;;;;;336.40;75.65;;;;;;;1.76;72.48;100319.69;342311;28;2038;-74
2022/01/12 00:43:20;;;;;;;338.08;76.97;;;;;;;1.78;73.37;100320.56;341243;29;1212;-74
2022/01/12 00:43:33;;;;;;;336.80;76.57;;;;;;;1.78;73.06;100317.97;342491;28;970;-73
2022/01/12 00:43:47;;;;;;;335.67;75.72;;;;;;;1.70;73.79;100315.38;342558;28;969;-73
2022/01/12 00:43:59;;;;;;;336.48;76.15;;;;;;;1.69;74.06;100312.78;341354;29;901;-73
2022/01/12 00:44:10;;;;;;;336.83;77.25;;;;;;;1.67;73.47;100318.78;342590;28;1015;-74
2022/01/12 00:44:23;;;;;;;336.95;77.07;;;;;;;1.70;73.97;100319.66;343978;28;948;-73
2022/01/12 00:44:36;;;;;;;338.33;77.30;;;;;;;1.74;73.70;100316.22;341195;28;1535;-74
2022/01/12 00:44:46;;;;;;;336.55;77.30;;;;;;;1.75;74.20;100320.53;339907;29;1707;-73
2022/01/12 00:45:00;;;;;;;335.35;77.47;;;;;;;1.74;73.78;100316.22;341303;29;998;-74
2022/01/12 00:45:11;;;;;;;335.05;75.28;;;;;;;1.70;73.67;100314.50;341256;29;968;-73
2022/01/12 00:45:21;;;;;;;335.25;74.82;;;;;;;1.64;72.95;100311.03;339903;29;941;-73
2022/01/12 00:45:32;;;;;;;335.00;75.17;;;;;;;1.59;72.95;100317.88;338550;29;932;-73
2022/01/12 00:45:45;;;;;;;334.95;76.35;;;;;;;1.57;73.41;100324.75;338669;29;888;-73
2022/01/12 00:45:56;;;;;;;336.05;77.03;;;;;;;1.57;74.00;100324.75;341112;29;1008;-73
2022/01/12 00:46:07;;;;;;;337.27;75.75;;;;;;;1.52;74.62;100305.78;341296;29;846;-73
2022/01/12 00:46:17;;;;;;;337.65;75.65;;;;;;;1.57;74.55;100314.44;341214;28;964;-73
2022/01/12 00:46:28;;;;;;;338.83;76.60;;;;;;;1.57;74.81;100319.59;343597;28;1869;-72
2022/01/12 00:46:39;;;;;;;337.75;76.45;;;;;;;1.62;74.38;100317.91;342609;28;960;-74
2022/01/12 00:46:51;;;;;;;339.00;76.63;;;;;;;1.63;73.94;100318.75;342580;28;1164;-73
2022/01/12 00:47:01;;;;;;;337.77;76.82;;;;;;;1.63;74.41;100319.63;342562;28;972;-73
2022/01/12 00:47:12;;;;;;;337.48;77.70;;;;;;;1.61;74.24;100310.16;338493;29;1207;-73
2022/01/12 00:47:22;;;;;;;335.97;78.50;;;;;;;1.66;74.67;100313.63;341294;29;1189;-74
2022/01/12 00:47:33;;;;;;;334.95;77.78;;;;;;;1.66;74.93;100308.47;343746;28;813;-72
2022/01/12 00:47:43;;;;;;;336.08;76.45;;;;;;;1.70;73.97;100317.09;343886;28;1472;-73
2022/01/12 00:47:54;;;;;;;336.97;76.37;;;;;;;1.69;74.45;100307.63;343884;28;1231;-74
2022/01/12 00:48:05;;;;;;;338.20;77.22;;;;;;;1.72;74.39;100316.25;341322;29;1257;-72
2022/01/12 00:48:16;;;;;;;337.05;77.55;;;;;;;1.73;74.29;100309.38;338576;29;1334;-72
2022/01/12 00:48:26;;;;;;;336.65;76.63;;;;;;;1.74;74.50;100316.22;340071;29;975;-72
2022/01/12 00:48:37;;;;;;;339.27;76.63;;;;;;;1.74;74.29;100311.06;341296;29;1097;-72
2022/01/12 00:48:47;;;;;;;339.80;76.32;;;;;;;1.75;74.13;100307.63;339945;28;1267;-72
2022/01/12 00:48:58;;;;;;;339.63;76.10;;;;;;;1.70;74.48;100319.66;342585;28;1306;-72
2022/01/12 00:49:08;;;;;;;336.77;76.63;;;;;;;1.71;73.83;100316.25;341381;29;1347;-73
2022/01/12 00:49:19;;;;;;;335.05;75.55;;;;;;;1.67;74.06;100311.06;340069;29;976;-73
2022/01/12 00:49:29;;;;;;;336.30;76.47;;;;;;;1.64;74.00;100311.03;338583;29;1318;-73
2022/01/12 00:49:39;;;;;;;337.45;76.78;;;;;;;1.66;74.08;100314.50;342463;28;1481;-72
2022/01/12 00:49:50;;;;;;;338.33;76.80;;;;;;;1.64;74.29;100316.19;341277;29;1027;-72
2022/01/12 00:50:00;;;;;;;338.77;76.68;;;;;;;1.65;74.71;100315.34;340137;29;830;-73
2022/01/12 00:50:11;;;;;;;337.37;76.20;;;;;;;1.63;74.74;100309.31;338752;29;976;-72
2022/01/12 00:50:21;;;;;;;337.52;76.18;;;;;;;1.63;74.48;100316.19;342521;28;1212;-72
2022/01/12 00:50:32;;;;;;;337.57;76.30;;;;;;;1.55;75.03;100313.56;344032;28;881;-72
2022/01/12 00:50:43;;;;;;;339.85;77.75;;;;;;;1.47;74.94;100315.22;342616;28;1184;-72
2022/01/12 00:50:53;;;;;;;339.20;77.15;;;;;;;1.43;74.23;100307.44;337871;29;1122;-72
2022/01/12 00:51:04;;;;;;;338.50;76.78;;;;;;;1.42;74.76;100304.00;342776;28;904;-72
2022/01/12 00:51:14;;;;;;;337.30;75.83;;;;;;;1.47;74.30;100322.94;344055;28;809;-72
2022/01/12 00:51:26;;;;;;;338.95;76.68;;;;;;;1.49;74.58;100315.22;343263;28;1338;-71
2022/01/12 00:51:37;;;;;;;339.48;76.88;;;;;;;1.51;73.69;100316.09;338557;29;961;-71
2022/01/12 00:51:50;;;;;;;338.05;76.47;;;;;;;1.53;73.86;100323.00;338918;29;1238;-71
2022/01/12 00:52:00;;;;;;;337.77;78.43;;;;;;;1.55;73.91;100318.72;342589;28;1323;-71
2022/01/12 00:52:10;;;;;;;339.37;79.83;;;;;;;1.55;73.86;100310.97;342460;28;1261;-72
2022/01/12 00:52:21;;;;;;;341.97;80.30;;;;;;;1.58;74.45;100313.56;339987;29;866;-71
2022/01/12 00:52:31;;;;;;;341.90;80.18;;;;;;;1.57;74.40;100314.44;339793;29;1316;-71
2022/01/12 00:52:41;;;;;;;341.03;79.03;;;;;;;1.57;74.24;100310.97;343824;28;1096;-71
2022/01/12 00:52:53;;;;;;;339.35;79.55;;;;;;;1.59;74.49;100310.13;344466;28;1243;-71
2022/01/12 00:53:04;;;;;;;339.38;79.62;;;;;;;1.64;74.78;100316.19;343867;28;1785;-72
2022/01/12 00:53:14;;;;;;;338.53;78.33;;;;;;;1.66;74.40;100313.63;339779;29;1391;-72
2022/01/12 00:53:25;;;;;;;338.00;77.28;;;;;;;1.70;74.31;100311.94;342365;28;905;-72
2022/01/12 00:53:36;;;;;;;338.20;76.43;;;;;;;1.70;74.12;100315.38;341174;29;873;-72
2022/01/12 00:53:46;;;;;;;339.37;76.33;;;;;;;1.71;74.72;100311.94;342561;28;963;-72
2022/01/12 00:53:57;;;;;;;339.50;75.75;;;;;;;1.74;74.85;100311.06;343112;28;884;-74
2022/01/12 00:54:08;;;;;;;338.40;75.68;;;;;;;1.75;74.65;100312.78;345209;28;1211;-72
2022/01/12 00:54:18;;;;;;;336.50;74.90;;;;;;;1.74;74.54;100311.06;345170;28;1412;-72
2022/01/12 00:54:29;;;;;;;336.10;76.90;;;;;;;1.75;74.86;100313.66;343926;28;1278;-72
2022/01/12 00:54:39;;;;;;;336.85;77.53;;;;;;;1.76;75.34;100314.50;346296;28;1787;-72
2022/01/12 00:54:49;;;;;;;337.50;78.87;;;;;;;1.78;75.17;100312.81;342547;28;940;-73
2022/01/12 00:55:00;;;;;;;338.38;76.70;;;;;;;1.78;75.17;100312.81;341291;29;1209;-73
2022/01/12 00:55:11;;;;;;;338.67;76.67;;;;;;;1.78;75.25;100315.38;341295;29;865;-73
2022/01/12 00:55:21;;;;;;;338.90;75.68;;;;;;;1.76;75.48;100311.94;341220;29;896;-73
2022/01/12 00:55:32;;;;;;;339.67;76.80;;;;;;;1.75;75.31;100305.91;345216;28;1163;-73
2022/01/12 00:55:42;;;;;;;339.50;76.40;;;;;;;1.76;75.10;100305.06;345328;28;879;-73
2022/01/12 00:55:53;;;;;;;338.90;78.03;;;;;;;1.77;75.28;100317.09;342532;28;1634;-72
2022/01/12 00:56:03;;;;;;;339.43;79.27;;;;;;;1.77;74.62;100316.25;339982;29;842;-73
2022/01/12 00:56:14;;;;;;;338.07;79.37;;;;;;;1.79;74.71;100314.53;339883;29;1036;-73
2022/01/12 00:56:24;;;;;;;338.83;79.38;;;;;;;1.79;75.57;100312.81;342079;28;1423;-73
2022/01/12 00:56:35;;;;;;;338.07;78.93;;;;;;;1.80;74.58;100311.09;343910;28;1086;-73
2022/01/12 00:56:45;;;;;;;338.98;79.47;;;;;;;1.82;74.94;100317.13;342578;28;1025;-73
2022/01/12 00:56:56;;;;;;;338.30;78.27;;;;;;;1.82;75.71;100314.56;340006;29;823;-73
2022/01/12 00:57:06;;;;;;;339.38;78.38;;;;;;;1.84;75.52;100323.16;339940;29;1490;-73
2022/01/12 00:57:16;;;;;;;340.27;78.30;;;;;;;1.83;74.94;100314.56;341093;29;1430;-73
2022/01/12 00:57:27;;;;;;;341.85;79.43;;;;;;;1.83;75.08;100305.97;342535;28;827;-73
2022/01/12 00:57:40;;;;;;;343.37;80.60;;;;;;;1.84;75.29;100312.84;342376;28;1340;-73
2022/01/12 00:57:51;;;;;;;341.15;78.50;;;;;;;1.85;75.24;100312.84;341151;29;1309;-73
2022/01/12 00:58:02;;;;;;;339.35;76.72;;;;;;;1.86;75.75;100317.16;341011;29;2026;-73
2022/01/12 00:58:12;;;;;;;338.93;76.47;;;;;;;1.86;75.87;100316.31;343895;28;1191;-73
2022/01/12 00:58:22;;;;;;;340.17;78.18;;;;;;;1.86;75.28;100314.59;343946;28;912;-73
2022/01/12 00:58:36;;;;;;;340.60;79.03;;;;;;;1.86;76.10;100317.16;342537;28;1067;-73